Time;durP1;ratioP1;P1;durP2;ratioP2;P2;SDS_P1;SDS_P2;PMS_P1;PMS_P2;Temp;Humidity;BMP_temperature;BMP_pressure;BME280_temperature;BME280_humidity;BME280_pressure;Samples;Min_cycle;Max_cycle;Signal;HPM_P1;HPM_P2
2021/07/10 00:01:18;;;;;;;7.70;6.90;;;18.60;99.90;;;;;;5069226;28;20468;-63
2021/07/10 00:03:45;;;;;;;7.77;6.97;;;18.60;99.90;;;;;;5069916;28;20452;-64
2021/07/10 00:06:12;;;;;;;5.00;4.60;;;18.60;99.90;;;;;;5069421;28;20963;-64
2021/07/10 00:08:39;;;;;;;3.90;3.60;;;18.60;99.90;;;;;;5069450;28;20477;-63
2021/07/10 00:11:07;;;;;;;4.97;4.57;;;18.50;99.90;;;;;;5068060;28;20720;-64
2021/07/10 00:13:34;;;;;;;5.20;4.70;;;18.50;99.90;;;;;;5069553;28;21005;-64
2021/07/10 00:16:02;;;;;;;21.23;19.07;;;18.50;99.90;;;;;;5068324;28;20476;-65
2021/07/10 00:18:29;;;;;;;9.60;8.70;;;18.50;99.90;;;;;;5068898;28;20478;-65
2021/07/10 00:20:56;;;;;;;7.83;6.80;;;18.60;99.90;;;;;;5066846;28;20534;-66
2021/07/10 00:23:23;;;;;;;9.03;7.73;;;18.50;99.90;;;;;;5069435;28;20464;-66
2021/07/10 00:25:50;;;;;;;5.57;5.07;;;18.50;99.90;;;;;;5067171;28;20467;-65
2021/07/10 00:28:17;;;;;;;5.00;3.47;;;18.50;99.90;;;;;;5065953;28;20783;-65
2021/07/10 00:30:44;;;;;;;5.10;4.70;;;18.60;99.90;;;;;;5068224;28;20464;-65
2021/07/10 00:33:12;;;;;;;3.87;3.57;;;18.50;99.90;;;;;;5068716;28;20481;-66
2021/07/10 00:35:39;;;;;;;3.97;3.57;;;18.50;99.90;;;;;;5068662;28;20465;-65
2021/07/10 00:38:06;;;;;;;3.10;2.90;;;18.50;99.90;;;;;;5069962;28;20478;-64
2021/07/10 00:40:33;;;;;;;2.37;2.20;;;18.50;99.90;;;;;;5069139;28;20965;-64
2021/07/10 00:43:00;;;;;;;3.93;3.27;;;18.50;99.90;;;;;;5068508;28;20993;-66
2021/07/10 00:45:27;;;;;;;3.50;3.20;;;18.50;99.90;;;;;;5069272;28;20645;-65
2021/07/10 00:47:54;;;;;;;4.23;3.93;;;18.50;99.90;;;;;;5069158;28;20471;-65
2021/07/10 00:50:24;;;;;;;4.40;4.10;;;18.50;99.90;;;;;;5070686;28;20872;-65
2021/07/10 00:52:52;;;;;;;3.80;3.50;;;18.50;99.90;;;;;;5068081;28;20462;-66
2021/07/10 00:55:20;;;;;;;4.67;4.37;;;18.50;99.90;;;;;;5069426;28;20477;-66
2021/07/10 00:57:47;;;;;;;4.27;3.97;;;18.50;99.90;;;;;;5068516;28;20482;-65
2021/07/10 01:00:16;;;;;;;4.57;4.17;;;18.50;99.90;;;;;;5069367;28;20800;-66
2021/07/10 01:02:45;;;;;;;5.07;4.57;;;18.50;99.90;;;;;;5067615;28;20812;-65
2021/07/10 01:05:14;;;;;;;3.97;3.77;;;18.40;99.90;;;;;;5068831;28;20638;-65
2021/07/10 01:07:43;;;;;;;4.40;4.07;;;18.40;99.90;;;;;;5068906;28;20482;-64
2021/07/10 01:10:11;;;;;;;3.97;3.67;;;18.40;99.90;;;;;;5068513;28;20489;-64
2021/07/10 01:12:40;;;;;;;7.97;7.27;;;18.40;99.90;;;;;;5067666;28;20475;-66
2021/07/10 01:15:09;;;;;;;7.10;6.50;;;18.40;99.90;;;;;;5068908;28;20476;-65
2021/07/10 01:17:36;;;;;;;6.30;5.70;;;18.40;99.90;;;;;;5067922;28;20476;-65
2021/07/10 01:20:08;;;;;;;9.83;8.67;;;18.40;99.90;;;;;;5068155;28;20832;-65
2021/07/10 01:22:36;;;;;;;7.83;6.60;;;18.40;99.90;;;;;;5067945;28;20457;-65
2021/07/10 01:25:05;;;;;;;11.63;8.77;;;18.40;99.90;;;;;;5068793;28;20468;-65
2021/07/10 01:27:32;;;;;;;10.40;7.60;;;18.30;99.90;;;;;;5067591;28;20477;-65
2021/07/10 01:30:02;;;;;;;11.40;9.37;;;18.30;99.90;;;;;;5069567;28;20953;-65
2021/07/10 01:32:30;;;;;;;11.23;8.80;;;18.40;99.90;;;;;;5067798;28;20473;-63
2021/07/10 01:34:57;;;;;;;11.83;10.60;;;18.30;99.90;;;;;;5069033;28;20485;-64
2021/07/10 01:37:23;;;;;;;8.70;7.30;;;18.40;99.90;;;;;;5070451;28;20467;-65
2021/07/10 01:39:52;;;;;;;17.60;12.30;;;18.40;99.90;;;;;;5070924;28;20469;-64
2021/07/10 01:42:20;;;;;;;10.50;9.00;;;18.40;99.90;;;;;;5071484;28;20523;-64
2021/07/10 01:44:49;;;;;;;8.63;7.83;;;18.40;99.90;;;;;;5070383;28;20475;-64
2021/07/10 01:47:15;;;;;;;8.57;7.90;;;18.40;99.90;;;;;;5070555;28;20484;-65
2021/07/10 01:49:43;;;;;;;22.37;19.03;;;18.30;99.90;;;;;;5070467;28;20475;-65
2021/07/10 01:52:10;;;;;;;11.53;10.37;;;18.40;99.90;;;;;;5060465;28;20480;-65
2021/07/10 01:54:36;;;;;;;9.37;8.57;;;18.40;99.90;;;;;;5074101;28;20476;-64
2021/07/10 01:57:09;;;;;;;8.17;7.47;;;18.40;99.90;;;;;;5070414;28;20598;-65
2021/07/10 01:59:37;;;;;;;109.70;97.10;;;18.40;99.90;;;;;;5074921;28;20485;-65
2021/07/10 02:02:05;;;;;;;15.37;13.90;;;18.50;99.90;;;;;;5075038;28;20470;-65
2021/07/10 02:04:33;;;;;;;10.30;9.30;;;18.50;99.90;;;;;;5074954;28;20979;-65
2021/07/10 02:07:00;;;;;;;9.00;8.20;;;18.50;99.90;;;;;;5078316;28;20982;-65
2021/07/10 02:09:27;;;;;;;8.33;7.20;;;18.60;99.90;;;;;;5075855;28;20799;-65
2021/07/10 02:11:54;;;;;;;9.37;8.47;;;18.60;99.90;;;;;;5074522;28;20553;-66
2021/07/10 02:14:23;;;;;;;7.37;5.90;;;18.60;99.90;;;;;;5075094;28;20498;-65
2021/07/10 02:16:49;;;;;;;7.87;7.10;;;18.60;99.90;;;;;;5074522;28;20473;-65
2021/07/10 02:19:17;;;;;;;7.73;7.03;;;18.60;99.90;;;;;;5074470;28;20476;-65
2021/07/10 02:21:44;;;;;;;6.60;6.10;;;18.60;99.90;;;;;;5063297;28;20967;-65
2021/07/10 02:24:11;;;;;;;10.00;9.10;;;18.60;99.90;;;;;;5073269;28;20488;-65
2021/07/10 02:26:38;;;;;;;11.03;9.87;;;18.60;99.90;;;;;;5073992;28;20474;-65
2021/07/10 02:29:07;;;;;;;8.67;7.97;;;18.60;99.90;;;;;;5072218;28;20487;-65
2021/07/10 02:31:36;;;;;;;10.80;9.90;;;18.60;99.90;;;;;;5072998;28;20543;-64
2021/07/10 02:34:04;;;;;;;9.53;8.63;;;18.60;99.90;;;;;;5074398;28;20476;-64
2021/07/10 02:36:31;;;;;;;11.27;10.17;;;18.60;99.90;;;;;;5067576;28;20479;-64
2021/07/10 02:38:58;;;;;;;8.60;7.80;;;18.60;99.90;;;;;;5071992;28;20465;-63
2021/07/10 02:41:25;;;;;;;7.37;6.83;;;18.60;99.90;;;;;;5074772;28;20472;-63
2021/07/10 02:43:52;;;;;;;9.83;8.93;;;18.60;99.90;;;;;;5073843;28;22954;-66
2021/07/10 02:46:19;;;;;;;9.77;8.97;;;18.60;99.90;;;;;;5074440;28;20475;-65
2021/07/10 02:48:48;;;;;;;9.40;8.60;;;18.60;99.90;;;;;;5073993;28;20871;-64
2021/07/10 02:51:16;;;;;;;9.07;8.27;;;18.60;99.90;;;;;;5067596;28;20474;-65
2021/07/10 02:53:43;;;;;;;18.67;16.87;;;18.60;99.90;;;;;;5070242;28;20975;-65
2021/07/10 02:56:10;;;;;;;9.70;8.80;;;18.70;99.90;;;;;;5073850;28;21016;-66
2021/07/10 02:58:37;;;;;;;32.13;27.80;;;18.70;99.90;;;;;;5073420;28;20464;-65
2021/07/10 03:01:04;;;;;;;57.97;51.70;;;18.80;99.90;;;;;;5074187;28;20484;-65
2021/07/10 03:03:31;;;;;;;109.60;94.47;;;18.90;99.90;;;;;;5074169;28;20484;-65
2021/07/10 03:05:59;;;;;;;25.90;23.30;;;19.00;99.90;;;;;;5071593;28;20609;-65
2021/07/10 03:08:26;;;;;;;10.33;9.30;;;19.10;99.90;;;;;;5074028;28;20473;-65
2021/07/10 03:10:53;;;;;;;7.70;7.07;;;19.10;99.90;;;;;;5073535;28;20483;-65
2021/07/10 03:13:20;;;;;;;8.50;7.80;;;19.10;99.90;;;;;;5073320;28;20512;-65
2021/07/10 03:15:47;;;;;;;8.17;7.47;;;19.20;99.90;;;;;;5072991;28;20471;-65
2021/07/10 03:18:14;;;;;;;8.03;7.40;;;19.10;99.90;;;;;;5073171;28;20468;-65
2021/07/10 03:20:41;;;;;;;9.20;8.60;;;19.10;99.90;;;;;;5073404;28;20481;-65
2021/07/10 03:23:09;;;;;;;9.23;8.43;;;19.10;99.90;;;;;;5072429;28;20465;-65
2021/07/10 03:25:37;;;;;;;7.77;7.17;;;19.10;99.90;;;;;;5073096;28;20632;-65
2021/07/10 03:28:04;;;;;;;13.23;9.00;;;19.10;99.90;;;;;;5073292;28;20461;-65
2021/07/10 03:30:31;;;;;;;9.10;8.33;;;19.10;99.90;;;;;;5070485;28;20474;-65
2021/07/10 03:32:58;;;;;;;8.13;7.43;;;19.10;99.90;;;;;;5072800;28;20477;-65
2021/07/10 03:35:25;;;;;;;82.33;71.47;;;19.00;99.90;;;;;;5072861;28;20842;-65
2021/07/10 03:37:53;;;;;;;23.10;20.80;;;19.00;99.90;;;;;;5069952;28;20468;-65
2021/07/10 03:40:24;;;;;;;8.83;8.10;;;19.10;99.90;;;;;;5066584;28;20473;-65
2021/07/10 03:42:51;;;;;;;8.13;7.43;;;19.10;99.90;;;;;;5072825;28;20464;-66
2021/07/10 03:45:19;;;;;;;7.73;7.00;;;19.10;99.90;;;;;;5073235;28;20468;-64
2021/07/10 03:47:46;;;;;;;9.43;8.27;;;19.10;99.90;;;;;;5072347;28;20867;-66
2021/07/10 03:50:14;;;;;;;8.70;8.00;;;19.10;99.90;;;;;;5073107;28;20546;-65
2021/07/10 03:52:42;;;;;;;8.53;7.77;;;19.10;99.90;;;;;;5062956;28;20484;-66
2021/07/10 03:55:12;;;;;;;7.97;7.27;;;19.00;99.90;;;;;;5073026;28;20856;-66
2021/07/10 03:57:40;;;;;;;8.03;7.30;;;19.00;99.90;;;;;;5072791;28;20557;-64
2021/07/10 04:00:10;;;;;;;72.20;64.07;;;19.00;99.90;;;;;;5071675;28;20461;-64
2021/07/10 04:02:37;;;;;;;67.07;59.83;;;19.00;99.90;;;;;;5070166;28;20470;-65
2021/07/10 04:05:05;;;;;;;82.63;72.93;;;19.10;99.90;;;;;;5070109;28;20469;-65
2021/07/10 04:07:33;;;;;;;65.63;58.47;;;19.20;99.90;;;;;;5070996;28;20816;-65
2021/07/10 04:10:00;;;;;;;58.17;51.57;;;19.40;99.90;;;;;;5070639;28;20967;-65
2021/07/10 04:12:27;;;;;;;32.03;28.87;;;19.50;99.90;;;;;;5050909;28;20537;-65
2021/07/10 04:15:00;;;;;;;13.00;11.80;;;19.70;99.90;;;;;;5049440;28;21004;-65
2021/07/10 04:17:28;;;;;;;9.97;9.17;;;19.80;99.90;;;;;;5050750;28;20864;-65
2021/07/10 04:19:55;;;;;;;10.87;9.87;;;19.90;99.90;;;;;;5050571;28;20546;-65
2021/07/10 04:22:22;;;;;;;8.00;7.40;;;19.90;99.90;;;;;;5054411;28;20547;-65
2021/07/10 04:24:49;;;;;;;9.07;8.37;;;19.80;99.90;;;;;;5069928;28;20542;-65
2021/07/10 04:27:16;;;;;;;9.00;8.30;;;19.80;99.90;;;;;;5070058;28;20458;-65
2021/07/10 04:29:45;;;;;;;10.33;9.50;;;19.70;99.90;;;;;;5059543;28;20537;-65
2021/07/10 04:32:13;;;;;;;10.63;9.70;;;19.70;99.90;;;;;;5053335;28;20457;-65
2021/07/10 04:34:40;;;;;;;10.90;10.00;;;19.60;99.90;;;;;;5070753;28;20469;-65
2021/07/10 04:37:07;;;;;;;11.60;10.60;;;19.60;99.90;;;;;;5070675;28;20456;-65
2021/07/10 04:39:35;;;;;;;11.57;10.53;;;19.50;99.90;;;;;;5072242;28;20474;-65
2021/07/10 04:42:02;;;;;;;10.13;9.33;;;19.40;99.90;;;;;;5072281;28;20535;-63
2021/07/10 04:44:29;;;;;;;12.73;11.53;;;19.40;99.90;;;;;;5072697;28;20485;-64
2021/07/10 04:46:56;;;;;;;10.83;9.93;;;19.30;99.90;;;;;;5072256;28;20473;-64
2021/07/10 04:49:24;;;;;;;10.73;9.87;;;19.30;99.90;;;;;;5072634;28;20472;-64
2021/07/10 04:51:51;;;;;;;11.50;10.40;;;19.20;99.90;;;;;;5072513;28;20516;-63
2021/07/10 04:54:18;;;;;;;12.53;11.30;;;19.20;99.90;;;;;;5072517;28;20458;-64
2021/07/10 04:56:45;;;;;;;13.90;10.60;;;19.10;99.90;;;;;;5072710;28;20464;-64
2021/07/10 04:59:12;;;;;;;11.90;10.80;;;19.10;99.90;;;;;;5072048;28;20469;-64
2021/07/10 05:01:39;;;;;;;10.77;9.80;;;19.10;99.90;;;;;;5072408;28;20527;-65
2021/07/10 05:04:06;;;;;;;11.00;10.03;;;19.00;99.90;;;;;;5072010;28;20466;-64
2021/07/10 05:06:34;;;;;;;10.83;9.90;;;19.00;99.90;;;;;;5072475;28;20456;-65
2021/07/10 05:09:01;;;;;;;10.97;9.87;;;19.00;99.90;;;;;;5071746;28;20470;-65
2021/07/10 05:11:28;;;;;;;11.17;10.27;;;19.00;99.90;;;;;;5072556;28;20466;-65
2021/07/10 05:13:54;;;;;;;11.80;10.60;;;19.00;99.90;;;;;;5058990;28;20465;-65
2021/07/10 05:16:21;;;;;;;10.97;9.87;;;19.00;99.90;;;;;;5052340;28;20524;-65
2021/07/10 05:18:49;;;;;;;11.97;10.80;;;19.00;99.90;;;;;;5052217;28;20540;-65
2021/07/10 05:21:16;;;;;;;11.23;10.23;;;19.00;99.90;;;;;;5051728;28;20466;-65
2021/07/10 05:23:44;;;;;;;10.80;9.90;;;19.00;99.90;;;;;;5066315;28;20474;-65
2021/07/10 05:26:11;;;;;;;10.43;9.50;;;19.00;99.90;;;;;;5072123;28;20473;-65
2021/07/10 05:28:40;;;;;;;10.63;9.67;;;19.00;99.90;;;;;;5073855;28;20790;-65
2021/07/10 05:31:07;;;;;;;12.10;11.00;;;19.00;99.90;;;;;;5075656;28;20466;-65
2021/07/10 05:33:34;;;;;;;11.07;10.07;;;19.00;99.90;;;;;;5071938;28;20788;-65
2021/07/10 05:36:01;;;;;;;12.70;11.57;;;19.00;99.90;;;;;;5075639;28;20700;-65
2021/07/10 05:38:28;;;;;;;12.87;11.67;;;19.00;99.90;;;;;;5076113;28;21010;-65
2021/07/10 05:40:56;;;;;;;11.40;9.80;;;19.00;99.90;;;;;;5075508;28;20472;-65
2021/07/10 05:43:24;;;;;;;11.17;10.17;;;19.00;99.90;;;;;;5075855;28;20464;-65
2021/07/10 05:45:51;;;;;;;10.60;9.73;;;19.00;99.90;;;;;;5075845;28;20471;-65
2021/07/10 05:48:19;;;;;;;11.80;10.70;;;19.00;99.90;;;;;;5075346;28;21308;-65
2021/07/10 05:50:46;;;;;;;11.77;10.57;;;19.00;99.90;;;;;;5075873;28;20471;-65
2021/07/10 05:53:12;;;;;;;12.10;11.00;;;19.00;99.90;;;;;;5075384;28;20469;-65
2021/07/10 05:55:40;;;;;;;12.20;11.10;;;19.00;99.90;;;;;;5075645;28;20477;-65
2021/07/10 05:58:08;;;;;;;12.10;11.07;;;19.10;99.90;;;;;;5075218;28;20967;-65
2021/07/10 06:00:35;;;;;;;10.77;9.67;;;19.10;99.90;;;;;;5075666;28;20488;-65
2021/07/10 06:03:03;;;;;;;12.97;11.63;;;19.10;99.90;;;;;;5075048;28;20472;-65
2021/07/10 06:05:30;;;;;;;11.70;10.50;;;19.10;99.90;;;;;;5075579;28;20461;-64
2021/07/10 06:07:57;;;;;;;11.60;10.60;;;19.10;99.90;;;;;;5075006;28;20832;-65
2021/07/10 06:10:24;;;;;;;10.73;9.63;;;19.20;99.90;;;;;;5075370;28;20469;-65
2021/07/10 06:12:51;;;;;;;12.43;11.23;;;19.20;99.90;;;;;;5075346;28;20481;-65
2021/07/10 06:15:20;;;;;;;10.23;9.33;;;19.30;99.90;;;;;;5074961;28;20457;-65
2021/07/10 06:17:47;;;;;;;10.00;9.10;;;19.30;99.90;;;;;;5075077;28;20473;-65
2021/07/10 06:20:17;;;;;;;12.20;11.10;;;19.30;99.90;;;;;;5074571;28;20478;-65
2021/07/10 06:22:47;;;;;;;10.60;9.67;;;19.40;99.90;;;;;;5075314;28;20846;-65
2021/07/10 06:25:15;;;;;;;11.17;10.10;;;19.50;99.90;;;;;;5074490;28;20812;-65
2021/07/10 06:27:42;;;;;;;10.70;9.90;;;19.50;99.90;;;;;;5074937;28;20469;-65
2021/07/10 06:30:10;;;;;;;11.27;10.27;;;19.50;99.90;;;;;;5074747;28;20472;-65
2021/07/10 06:32:39;;;;;;;10.70;9.80;;;19.50;99.90;;;;;;5070706;28;20470;-65
2021/07/10 06:35:08;;;;;;;9.90;9.10;;;19.60;99.90;;;;;;5074530;28;20581;-65
2021/07/10 06:37:35;;;;;;;10.97;10.10;;;19.50;99.90;;;;;;5074998;28;20482;-65
2021/07/10 06:40:02;;;;;;;9.73;8.93;;;19.60;99.90;;;;;;5073295;28;20842;-65
2021/07/10 06:42:29;;;;;;;11.23;10.23;;;19.60;99.90;;;;;;5074631;28;20470;-65
2021/07/10 06:44:56;;;;;;;11.67;10.57;;;19.60;99.90;;;;;;5074754;28;20994;-65
2021/07/10 06:47:23;;;;;;;12.87;11.57;;;19.60;99.90;;;;;;5074119;28;20468;-65
2021/07/10 06:49:51;;;;;;;10.90;10.00;;;19.60;99.90;;;;;;5074750;28;20868;-65
2021/07/10 06:52:18;;;;;;;11.17;10.07;;;19.70;99.90;;;;;;5055277;28;20531;-65
2021/07/10 06:54:45;;;;;;;10.13;9.17;;;19.70;99.90;;;;;;5054499;28;20467;-65
2021/07/10 06:57:12;;;;;;;12.30;11.20;;;19.80;99.90;;;;;;5054057;28;20475;-66
2021/07/10 06:59:39;;;;;;;12.10;10.90;;;19.80;99.90;;;;;;5054553;28;20960;-66
2021/07/10 07:02:06;;;;;;;13.23;9.70;;;19.90;99.90;;;;;;5053891;28;20520;-66
2021/07/10 07:04:33;;;;;;;9.67;8.87;;;20.00;99.90;;;;;;5054499;28;20880;-65
2021/07/10 07:07:01;;;;;;;11.13;10.13;;;20.00;99.90;;;;;;5053945;28;21023;-66
2021/07/10 07:09:28;;;;;;;10.23;9.33;;;20.00;99.90;;;;;;5054278;28;20467;-65
2021/07/10 07:11:55;;;;;;;11.50;10.50;;;20.00;99.90;;;;;;5054137;28;20533;-65
2021/07/10 07:14:22;;;;;;;10.57;9.60;;;20.00;99.90;;;;;;5053842;28;20469;-65
2021/07/10 07:16:49;;;;;;;11.03;10.03;;;20.10;99.90;;;;;;5054216;28;20991;-65
2021/07/10 07:19:16;;;;;;;9.70;8.90;;;20.10;99.90;;;;;;5053640;28;20471;-65
2021/07/10 07:21:43;;;;;;;9.63;8.93;;;20.10;99.90;;;;;;5053687;28;20528;-65
2021/07/10 07:24:11;;;;;;;12.13;10.93;;;20.20;99.90;;;;;;5071431;28;20475;-65
2021/07/10 07:26:38;;;;;;;10.00;9.20;;;20.20;99.90;;;;;;5073948;28;20940;-66
2021/07/10 07:29:05;;;;;;;10.90;9.80;;;20.30;99.90;;;;;;5073224;28;20466;-65
2021/07/10 07:31:32;;;;;;;10.80;9.87;;;20.30;99.90;;;;;;5073740;28;20470;-65
2021/07/10 07:33:59;;;;;;;12.03;10.83;;;20.40;99.90;;;;;;5069582;28;20466;-66
2021/07/10 07:36:26;;;;;;;10.23;9.37;;;20.40;99.90;;;;;;5073349;28;20527;-66
2021/07/10 07:38:53;;;;;;;10.77;9.87;;;20.50;99.90;;;;;;5073504;28;20473;-65
2021/07/10 07:41:21;;;;;;;11.93;9.53;;;20.60;99.90;;;;;;5073179;28;20462;-65
2021/07/10 07:43:52;;;;;;;10.23;9.13;;;20.80;99.90;;;;;;5073493;28;20474;-66
2021/07/10 07:46:19;;;;;;;8.47;6.73;;;20.80;99.90;;;;;;5073280;28;20541;-66
2021/07/10 07:48:46;;;;;;;9.83;9.03;;;20.90;99.90;;;;;;5073347;28;20470;-66
2021/07/10 07:51:15;;;;;;;8.33;7.53;;;21.00;99.90;;;;;;5072447;28;20486;-66
2021/07/10 07:53:42;;;;;;;9.23;8.40;;;21.10;99.90;;;;;;5073319;28;20490;-66
2021/07/10 07:56:10;;;;;;;9.27;8.50;;;21.10;99.90;;;;;;5072910;28;20467;-65
2021/07/10 07:58:39;;;;;;;8.33;7.63;;;21.20;99.90;;;;;;5073306;28;20474;-65
2021/07/10 08:01:06;;;;;;;8.17;7.47;;;21.20;99.90;;;;;;5072741;28;20475;-66
2021/07/10 08:03:33;;;;;;;8.70;7.87;;;21.20;99.90;;;;;;5073222;28;20470;-65
2021/07/10 08:06:00;;;;;;;9.20;8.50;;;21.30;99.90;;;;;;5073190;28;20470;-65
2021/07/10 08:08:28;;;;;;;11.63;8.40;;;21.30;99.90;;;;;;5072719;28;20912;-65
2021/07/10 08:10:55;;;;;;;7.80;7.20;;;21.40;99.90;;;;;;5073235;28;20812;-65
2021/07/10 08:13:22;;;;;;;6.70;6.20;;;21.40;99.90;;;;;;5072536;28;20479;-65
2021/07/10 08:15:50;;;;;;;7.23;6.53;;;21.50;99.90;;;;;;5073166;28;20461;-65
2021/07/10 08:18:20;;;;;;;9.00;8.23;;;21.60;99.90;;;;;;5072973;28;20543;-66
2021/07/10 08:20:47;;;;;;;7.53;6.93;;;21.70;99.90;;;;;;5072449;28;20474;-65
2021/07/10 08:23:14;;;;;;;8.17;7.40;;;21.90;99.90;;;;;;5073035;28;20478;-65
2021/07/10 08:25:42;;;;;;;8.33;7.20;;;22.00;99.90;;;;;;5072525;28;20581;-65
2021/07/10 08:28:09;;;;;;;7.80;7.20;;;22.10;99.90;;;;;;5072498;28;20515;-65
2021/07/10 08:30:36;;;;;;;7.23;6.63;;;22.20;99.90;;;;;;5072613;28;20987;-65
2021/07/10 08:33:04;;;;;;;8.33;6.47;;;22.40;99.90;;;;;;5068768;28;20465;-64
2021/07/10 08:35:31;;;;;;;6.60;6.10;;;22.50;99.90;;;;;;5072680;28;20466;-64
2021/07/10 08:37:58;;;;;;;5.73;5.33;;;22.70;99.90;;;;;;5072503;28;20531;-66
2021/07/10 08:40:25;;;;;;;6.73;6.13;;;22.70;99.90;;;;;;5072828;28;20470;-66
2021/07/10 08:42:52;;;;;;;7.30;6.60;;;22.80;99.90;;;;;;5072173;28;20470;-64
2021/07/10 08:45:20;;;;;;;6.37;5.87;;;22.90;99.90;;;;;;5072681;28;20512;-65
2021/07/10 08:47:47;;;;;;;5.93;5.43;;;23.00;99.90;;;;;;5072067;28;20812;-65
2021/07/10 08:50:17;;;;;;;6.73;6.23;;;23.10;99.90;;;;;;5072524;28;20458;-65
2021/07/10 08:52:44;;;;;;;5.93;5.37;;;23.20;99.90;;;;;;5072091;28;20489;-64
2021/07/10 08:55:14;;;;;;;5.90;5.40;;;23.20;99.90;;;;;;5072550;28;20492;-64
2021/07/10 08:57:41;;;;;;;7.20;6.60;;;23.30;99.90;;;;;;5071976;28;20476;-65
2021/07/10 09:00:11;;;;;;;8.20;6.50;;;23.30;99.60;;;;;;5072698;28;20473;-65
2021/07/10 09:02:42;;;;;;;6.50;5.97;;;23.40;99.90;;;;;;5072047;28;20470;-65
2021/07/10 09:05:10;;;;;;;6.10;5.60;;;23.40;99.90;;;;;;5076793;28;20474;-66
2021/07/10 09:08:12;;;;;;;6.53;5.80;;;23.50;99.90;;;;;;5076566;28;20477;-66
2021/07/10 09:10:41;;;;;;;6.00;5.40;;;23.60;99.00;;;;;;5076344;28;20940;-66
2021/07/10 09:13:08;;;;;;;7.17;6.50;;;23.60;98.90;;;;;;5076639;28;20469;-66
2021/07/10 09:15:35;;;;;;;6.00;5.53;;;23.50;99.40;;;;;;5075859;28;20462;-64
2021/07/10 09:18:02;;;;;;;9.00;6.27;;;23.60;99.80;;;;;;5076266;28;20466;-66
2021/07/10 09:20:30;;;;;;;7.53;6.93;;;23.60;99.60;;;;;;5075988;28;20804;-67
2021/07/10 09:22:59;;;;;;;5.37;5.03;;;23.60;99.90;;;;;;5068239;28;20474;-66
2021/07/10 09:25:29;;;;;;;6.80;6.30;;;23.50;99.90;;;;;;5055739;28;20480;-63
2021/07/10 09:27:57;;;;;;;7.33;6.70;;;23.60;99.60;;;;;;5056407;28;20471;-65
2021/07/10 09:30:32;;;;;;;8.37;7.67;;;23.60;99.90;;;;;;5055632;28;20482;-65
2021/07/10 09:33:13;;;;;;;8.13;7.43;;;23.60;99.80;;;;;;5061347;28;20541;-65
2021/07/10 09:35:50;;;;;;;11.10;8.17;;;23.60;99.70;;;;;;5075678;28;21029;-65
2021/07/10 09:38:24;;;;;;;8.27;7.57;;;23.60;99.90;;;;;;5075879;28;20461;-65
2021/07/10 09:41:03;;;;;;;7.23;6.73;;;23.60;99.80;;;;;;5076005;28;20463;-65
2021/07/10 09:43:32;;;;;;;7.53;7.00;;;23.60;99.00;;;;;;5075812;28;20514;-65
2021/07/10 09:46:02;;;;;;;8.33;7.53;;;23.60;98.60;;;;;;5075924;28;20473;-65
2021/07/10 09:48:30;;;;;;;7.60;7.00;;;23.60;98.00;;;;;;5075189;28;20573;-65
2021/07/10 09:51:16;;;;;;;8.00;6.97;;;23.60;98.40;;;;;;5075799;28;20474;-65
2021/07/10 09:54:05;;;;;;;6.83;6.23;;;23.60;98.60;;;;;;5075351;28;20458;-66
2021/07/10 09:56:34;;;;;;;7.23;6.63;;;23.60;98.70;;;;;;5075415;28;20458;-65
2021/07/10 09:59:16;;;;;;;6.80;6.30;;;23.60;98.30;;;;;;5075559;28;20503;-65
2021/07/10 10:01:43;;;;;;;8.30;7.60;;;23.60;97.90;;;;;;5075264;28;20462;-65
2021/07/10 10:04:22;;;;;;;10.10;7.13;;;23.60;98.20;;;;;;5075586;28;20469;-65
2021/07/10 10:06:49;;;;;;;8.27;7.20;;;23.50;98.10;;;;;;5075250;28;20816;-65
2021/07/10 10:09:20;;;;;;;8.00;7.33;;;23.60;98.40;;;;;;5075413;28;20462;-65
2021/07/10 10:11:52;;;;;;;5.97;5.57;;;23.60;98.30;;;;;;5074953;28;20474;-65
2021/07/10 10:14:20;;;;;;;7.80;7.20;;;23.70;98.50;;;;;;5075182;28;20540;-65
2021/07/10 10:16:49;;;;;;;7.67;7.10;;;23.80;98.00;;;;;;5074988;28;20470;-65
2021/07/10 10:19:17;;;;;;;8.23;7.53;;;23.90;97.60;;;;;;5074960;28;20614;-65
2021/07/10 10:21:45;;;;;;;6.80;6.30;;;24.00;97.70;;;;;;5074805;28;20539;-65
2021/07/10 10:24:13;;;;;;;6.30;5.70;;;24.10;98.10;;;;;;5057024;28;20481;-65
2021/07/10 10:26:42;;;;;;;6.30;5.80;;;24.20;97.60;;;;;;5054876;28;20463;-65
2021/07/10 10:29:10;;;;;;;7.03;6.43;;;24.30;97.20;;;;;;5054870;28;20542;-65
2021/07/10 10:31:38;;;;;;;7.33;6.63;;;24.30;96.80;;;;;;5054829;28;20521;-66
2021/07/10 10:34:07;;;;;;;5.53;5.13;;;24.40;97.10;;;;;;5073569;28;20546;-65
2021/07/10 10:36:34;;;;;;;8.00;7.23;;;24.50;97.80;;;;;;5074684;28;20501;-65
2021/07/10 10:39:01;;;;;;;6.83;6.23;;;24.50;96.50;;;;;;5075088;28;20477;-65
2021/07/10 10:41:29;;;;;;;6.77;6.17;;;24.50;96.00;;;;;;5074634;28;20527;-65
2021/07/10 10:43:58;;;;;;;7.63;6.17;;;24.60;95.80;;;;;;5074486;28;20458;-65
2021/07/10 10:46:25;;;;;;;7.67;6.60;;;24.60;95.30;;;;;;5074719;28;20470;-65
2021/07/10 10:48:53;;;;;;;6.70;6.17;;;24.60;95.20;;;;;;5074045;28;20519;-65
2021/07/10 10:51:32;;;;;;;6.23;5.73;;;24.60;95.10;;;;;;5074674;28;20851;-65
2021/07/10 10:54:26;;;;;;;10.40;6.30;;;24.50;95.00;;;;;;5074518;28;21322;-65
2021/07/10 10:56:54;;;;;;;7.67;6.97;;;24.50;94.80;;;;;;5072348;28;20458;-65
2021/07/10 10:59:40;;;;;;;7.00;6.40;;;24.40;95.30;;;;;;5074473;28;20470;-65
2021/07/10 11:02:55;;;;;;;5.37;4.97;;;24.40;94.60;;;;;;5074078;28;21560;-65
2021/07/10 11:05:48;;;;;;;6.13;5.63;;;24.50;95.10;;;;;;5074137;28;20490;-65
2021/07/10 11:08:26;;;;;;;5.97;5.57;;;24.50;94.10;;;;;;5054010;28;20460;-65
2021/07/10 11:11:35;;;;;;;6.17;5.77;;;24.60;94.70;;;;;;5054590;28;20467;-65
2021/07/10 11:14:24;;;;;;;5.50;5.03;;;24.60;95.20;;;;;;5043361;28;20463;-65
2021/07/10 11:17:09;;;;;;;6.20;5.60;;;24.70;94.60;;;;;;5053610;28;20458;-65
2021/07/10 11:19:57;;;;;;;4.90;4.50;;;24.70;93.80;;;;;;5053790;28;20551;-65
2021/07/10 11:23:02;;;;;;;5.27;4.73;;;24.70;93.40;;;;;;5054025;28;20541;-65
2021/07/10 11:26:10;;;;;;;6.43;5.30;;;24.80;93.50;;;;;;5072934;28;20470;-65
2021/07/10 11:28:42;;;;;;;4.87;4.57;;;24.80;93.80;;;;;;5073429;28;21237;-65
2021/07/10 11:31:12;;;;;;;5.07;4.77;;;24.80;95.30;;;;;;5073977;28;20858;-65
2021/07/10 11:34:03;;;;;;;5.20;4.67;;;24.90;94.70;;;;;;5069302;28;21243;-65
2021/07/10 11:36:48;;;;;;;5.20;4.90;;;24.90;94.20;;;;;;5073408;28;20976;-65
2021/07/10 11:39:35;;;;;;;9.80;5.77;;;24.90;93.10;;;;;;5073265;28;20466;-65
2021/07/10 11:42:48;;;;;;;6.10;5.70;;;24.90;92.60;;;;;;5073625;28;20465;-65
2021/07/10 11:45:29;;;;;;;5.20;4.80;;;24.80;93.00;;;;;;5073438;28;20485;-65
2021/07/10 11:48:00;;;;;;;5.30;4.90;;;24.80;94.10;;;;;;5073049;28;20492;-65
2021/07/10 11:50:30;;;;;;;5.97;5.57;;;24.80;94.60;;;;;;5073746;28;20470;-65
2021/07/10 11:53:03;;;;;;;5.73;5.13;;;24.80;94.00;;;;;;5072860;28;20462;-65
2021/07/10 11:55:33;;;;;;;5.40;5.00;;;24.80;94.50;;;;;;5073397;28;20963;-65
2021/07/10 11:58:03;;;;;;;5.70;5.20;;;24.80;94.20;;;;;;5072832;28;20467;-65
2021/07/10 12:00:30;;;;;;;5.40;5.00;;;24.80;93.70;;;;;;5073502;28;20472;-65
2021/07/10 12:02:57;;;;;;;6.07;5.57;;;24.80;93.50;;;;;;5072894;28;20471;-65
2021/07/10 12:05:24;;;;;;;6.03;5.20;;;24.80;93.50;;;;;;5073293;28;21014;-66
2021/07/10 12:07:54;;;;;;;5.30;5.00;;;24.90;93.70;;;;;;5072909;28;20782;-65
2021/07/10 12:10:24;;;;;;;5.57;5.07;;;24.90;93.50;;;;;;5072698;28;20458;-65
2021/07/10 12:12:54;;;;;;;6.73;6.20;;;24.90;93.60;;;;;;5073429;28;20549;-65
2021/07/10 12:15:23;;;;;;;5.17;4.80;;;25.00;93.90;;;;;;5072726;28;20466;-65
2021/07/10 12:17:52;;;;;;;5.50;5.07;;;25.00;94.10;;;;;;5073107;28;20478;-65
2021/07/10 12:20:22;;;;;;;5.30;4.90;;;25.00;93.70;;;;;;5072312;28;20462;-65
2021/07/10 12:22:52;;;;;;;5.60;5.23;;;25.00;92.30;;;;;;5072958;28;20480;-65
2021/07/10 12:25:21;;;;;;;4.47;4.17;;;25.00;92.70;;;;;;5072707;28;20944;-65
2021/07/10 12:28:00;;;;;;;5.97;5.30;;;25.10;93.80;;;;;;5072796;28;21033;-65
2021/07/10 12:30:44;;;;;;;5.67;5.27;;;25.10;94.00;;;;;;5072597;28;20474;-65
2021/07/10 12:33:34;;;;;;;5.10;4.70;;;25.10;92.90;;;;;;5068382;28;20940;-65
2021/07/10 12:36:04;;;;;;;4.67;4.20;;;25.10;92.60;;;;;;5072863;28;20481;-65
2021/07/10 12:38:31;;;;;;;4.80;4.40;;;25.20;93.30;;;;;;5072362;28;21023;-65
2021/07/10 12:41:19;;;;;;;4.47;4.17;;;25.20;95.20;;;;;;5072784;28;20478;-65
2021/07/10 12:43:46;;;;;;;4.57;4.20;;;25.20;95.80;;;;;;5056600;28;20463;-65
2021/07/10 12:46:13;;;;;;;5.77;5.37;;;25.20;95.70;;;;;;5052302;28;21278;-65
2021/07/10 12:48:40;;;;;;;4.57;4.27;;;25.20;93.50;;;;;;5052656;28;20494;-65
2021/07/10 12:51:07;;;;;;;4.87;4.47;;;25.30;94.60;;;;;;5052103;28;20479;-65
2021/07/10 12:53:37;;;;;;;6.00;5.60;;;25.30;95.20;;;;;;5052834;28;20977;-65